Time;durP1;ratioP1;P1;durP2;ratioP2;P2;SDS_P1;SDS_P2;PMS_P1;PMS_P2;Temp;Humidity;BMP_temperature;BMP_pressure;BME280_temperature;BME280_humidity;BME280_pressure;Samples;Min_cycle;Max_cycle;Signal;HPM_P1;HPM_P2
2022/04/21 00:00:00;;;;;;;0.60;0.60;;;9.20;58.90;;;;;;5013377;28;20381;-68
2022/04/21 00:02:26;;;;;;;0.40;0.20;;;9.00;58.80;;;;;;5012208;28;20413;-68
2022/04/21 00:04:52;;;;;;;0.60;0.50;;;9.00;59.50;;;;;;5013244;28;20737;-68
2022/04/21 00:07:17;;;;;;;0.40;0.30;;;9.00;59.60;;;;;;5013599;28;20388;-68
2022/04/21 00:09:43;;;;;;;0.40;0.20;;;9.10;60.00;;;;;;5012681;28;20417;-68
2022/04/21 00:12:09;;;;;;;0.40;0.20;;;9.00;60.30;;;;;;5013177;28;20392;-68
2022/04/21 00:14:35;;;;;;;0.40;0.20;;;9.00;60.40;;;;;;5011993;28;20878;-68
2022/04/21 00:17:00;;;;;;;0.40;0.20;;;9.10;60.00;;;;;;5013051;28;20377;-68
2022/04/21 00:19:26;;;;;;;1.00;1.00;;;9.00;60.60;;;;;;5012851;28;20392;-68
2022/04/21 00:24:36;;;;;;;0.40;0.20;;;9.00;60.40;;;;;;5012212;28;20396;-68
2022/04/21 00:27:02;;;;;;;0.40;0.20;;;9.00;60.30;;;;;;5012564;28;20409;-68
2022/04/21 00:29:28;;;;;;;0.40;0.20;;;8.90;60.70;;;;;;5012787;28;20424;-67
2022/04/21 00:31:54;;;;;;;0.40;0.30;;;8.90;60.10;;;;;;5021438;28;20709;-68
2022/04/21 00:34:19;;;;;;;0.40;0.30;;;8.90;61.20;;;;;;5032764;28;20397;-68
2022/04/21 00:36:45;;;;;;;0.40;0.20;;;9.00;60.10;;;;;;5031769;28;20886;-68
2022/04/21 00:39:11;;;;;;;0.40;0.20;;;9.00;60.70;;;;;;5032173;28;20899;-68
2022/04/21 00:41:37;;;;;;;0.40;0.20;;;9.10;59.60;;;;;;5032252;28;20450;-68
2022/04/21 00:44:04;;;;;;;0.40;0.20;;;9.00;60.00;;;;;;5031286;28;20379;-68
2022/04/21 00:46:30;;;;;;;0.50;0.50;;;9.00;61.50;;;;;;5031894;28;20751;-67
2022/04/21 00:48:56;;;;;;;0.40;0.20;;;9.00;60.70;;;;;;5031411;28;20445;-68
2022/04/21 00:51:24;;;;;;;0.60;0.60;;;8.80;61.90;;;;;;5032123;28;20378;-68
2022/04/21 00:53:50;;;;;;;1.30;0.60;;;8.80;60.90;;;;;;5032181;28;20392;-68
2022/04/21 00:56:15;;;;;;;0.40;0.20;;;8.70;63.30;;;;;;5031296;28;20378;-68
2022/04/21 00:58:43;;;;;;;0.40;0.30;;;8.80;64.10;;;;;;5031856;28;20429;-68
2022/04/21 01:02:46;;;;;;;0.40;0.20;;;8.70;64.60;;;;;;5031539;28;20394;-68
2022/04/21 01:03:56;;;;;;;0.40;0.20;;;8.60;62.20;;;;;;5031551;28;20395;-68
2022/04/21 01:06:25;;;;;;;0.40;0.30;;;8.50;63.10;;;;;;5030668;28;20487;-68
2022/04/21 01:08:51;;;;;;;0.40;0.20;;;8.60;63.80;;;;;;5031691;28;20421;-68
2022/04/21 01:11:17;;;;;;;0.40;0.20;;;8.60;63.80;;;;;;5030935;28;20411;-68
2022/04/21 01:13:43;;;;;;;0.50;0.50;;;8.50;64.40;;;;;;5031451;28;20375;-68
2022/04/21 01:16:08;;;;;;;0.40;0.20;;;8.50;64.00;;;;;;5030773;28;20448;-68
2022/04/21 01:18:34;;;;;;;0.85;0.75;;;8.50;64.60;;;;;;5031434;28;20448;-68
2022/04/21 01:21:00;;;;;;;0.40;0.20;;;8.40;63.90;;;;;;5031419;28;20379;-68
2022/04/21 01:23:26;;;;;;;0.40;0.20;;;8.50;65.20;;;;;;5030681;28;20919;-68
2022/04/21 01:25:53;;;;;;;0.40;0.30;;;8.40;64.60;;;;;;5031135;28;20530;-68
2022/04/21 01:28:20;;;;;;;0.40;0.30;;;8.40;64.50;;;;;;5029399;28;20391;-68
2022/04/21 01:30:45;;;;;;;0.50;0.50;;;8.30;65.90;;;;;;5030908;28;20808;-68
2022/04/21 01:33:11;;;;;;;0.60;0.60;;;8.20;66.10;;;;;;5010285;28;20403;-68
2022/04/21 01:35:37;;;;;;;0.60;0.60;;;8.00;66.00;;;;;;5010422;28;20464;-68
2022/04/21 01:43:32;;;;;;;0.40;0.20;;;8.00;69.90;;;;;;5010336;28;20423;-68
2022/04/21 01:45:57;;;;;;;0.40;0.20;;;8.00;69.60;;;;;;5011067;28;20733;-68
2022/04/21 01:48:24;;;;;;;0.40;0.20;;;7.90;69.90;;;;;;5011341;28;20381;-68
2022/04/21 01:50:49;;;;;;;0.40;0.20;;;7.90;69.50;;;;;;5010814;28;20384;-67
2022/04/21 01:53:16;;;;;;;0.40;0.20;;;7.80;69.60;;;;;;5011245;28;20768;-68
2022/04/21 01:55:41;;;;;;;0.40;0.20;;;7.80;69.70;;;;;;5010420;28;20456;-68
2022/04/21 01:58:07;;;;;;;0.40;0.20;;;7.70;71.40;;;;;;5011290;28;20842;-68
2022/04/21 02:00:33;;;;;;;0.40;0.20;;;7.70;72.20;;;;;;5010921;28;20421;-68
2022/04/21 02:02:59;;;;;;;0.40;0.20;;;7.60;72.40;;;;;;5010438;28;20826;-68
2022/04/21 02:05:24;;;;;;;0.40;0.20;;;7.60;73.50;;;;;;5009740;28;20400;-68
2022/04/21 02:07:50;;;;;;;0.80;0.60;;;7.50;74.00;;;;;;5009025;28;20408;-68
2022/04/21 02:10:18;;;;;;;0.70;0.70;;;7.50;75.70;;;;;;5011003;28;20431;-68
2022/04/21 02:12:45;;;;;;;0.40;0.40;;;7.40;73.90;;;;;;5010568;28;20834;-68
2022/04/21 02:15:11;;;;;;;0.40;0.20;;;7.60;74.10;;;;;;5010750;28;20430;-68
2022/04/21 02:17:38;;;;;;;0.40;0.20;;;7.60;75.20;;;;;;5010701;28;20932;-68
2022/04/21 02:20:06;;;;;;;0.50;0.50;;;7.60;73.00;;;;;;5010059;28;20388;-68
2022/04/21 02:22:32;;;;;;;0.40;0.20;;;7.60;73.90;;;;;;5010836;28;20505;-68
2022/04/21 02:24:58;;;;;;;1.50;0.50;;;7.50;75.20;;;;;;5008793;28;20932;-68
2022/04/21 02:27:23;;;;;;;0.40;0.20;;;7.40;75.90;;;;;;5010837;28;20471;-68
2022/04/21 02:29:49;;;;;;;0.80;0.80;;;7.40;77.30;;;;;;5010557;28;20385;-68
2022/04/21 02:32:15;;;;;;;0.40;0.20;;;7.20;78.90;;;;;;5020849;28;20386;-68
2022/04/21 02:34:41;;;;;;;0.40;0.20;;;7.10;78.10;;;;;;5030483;28;20428;-68
2022/04/21 02:37:07;;;;;;;1.30;1.20;;;7.00;79.50;;;;;;5029625;28;20403;-68
2022/04/21 02:39:33;;;;;;;0.40;0.30;;;7.00;80.50;;;;;;5030727;28;20414;-68
2022/04/21 02:42:00;;;;;;;0.40;0.30;;;6.90;81.30;;;;;;5030381;28;20411;-68
2022/04/21 02:44:26;;;;;;;0.70;0.70;;;6.90;81.30;;;;;;5028775;28;20391;-68
2022/04/21 02:46:52;;;;;;;0.40;0.20;;;6.90;81.00;;;;;;5030173;28;20874;-68
2022/04/21 02:49:19;;;;;;;0.40;0.20;;;6.90;83.90;;;;;;5044858;28;20489;-68
2022/04/21 02:51:45;;;;;;;0.40;0.30;;;6.80;85.30;;;;;;5030270;28;20753;-68
2022/04/21 02:59:41;;;;;;;0.40;0.20;;;6.80;84.80;;;;;;5034290;28;20374;-68
2022/04/21 03:02:06;;;;;;;0.40;0.20;;;6.70;84.70;;;;;;5033894;28;20418;-68
2022/04/21 03:04:32;;;;;;;0.40;0.20;;;6.70;85.40;;;;;;5033452;28;20371;-68
2022/04/21 03:06:58;;;;;;;0.40;0.20;;;6.70;86.40;;;;;;5034272;28;20439;-68
2022/04/21 03:09:23;;;;;;;0.40;0.20;;;6.60;86.40;;;;;;5033241;28;20740;-68
2022/04/21 03:11:49;;;;;;;0.40;0.20;;;6.60;87.10;;;;;;5033976;28;20383;-68
2022/04/21 03:14:15;;;;;;;0.40;0.20;;;6.60;85.30;;;;;;5034219;28;20402;-68
2022/04/21 03:16:41;;;;;;;0.80;0.70;;;6.60;85.70;;;;;;5033093;28;20532;-68
2022/04/21 03:19:07;;;;;;;0.40;0.20;;;6.70;86.80;;;;;;5033867;28;20389;-68
2022/04/21 03:24:19;;;;;;;0.40;0.40;;;6.70;86.90;;;;;;5033656;28;20379;-68
2022/04/21 03:26:49;;;;;;;0.50;0.50;;;6.60;87.80;;;;;;5032768;28;20931;-68
2022/04/21 03:29:15;;;;;;;1.10;0.80;;;6.60;86.20;;;;;;5033713;28;20917;-68
2022/04/21 03:31:43;;;;;;;0.40;0.20;;;6.50;87.00;;;;;;5040667;28;20397;-68
2022/04/21 03:34:13;;;;;;;0.40;0.20;;;6.60;89.20;;;;;;5012963;28;20575;-68
2022/04/21 03:36:45;;;;;;;0.40;0.20;;;6.60;86.80;;;;;;5013657;28;20769;-68
2022/04/21 03:39:11;;;;;;;0.40;0.22;;;6.40;87.90;;;;;;5014197;28;20405;-68
2022/04/21 03:41:37;;;;;;;0.40;0.20;;;6.40;89.30;;;;;;5013171;28;20919;-69
2022/04/21 03:44:04;;;;;;;0.40;0.20;;;6.40;87.80;;;;;;5014046;28;20393;-68
2022/04/21 03:46:30;;;;;;;0.40;0.20;;;6.30;90.80;;;;;;5014076;28;20400;-69
2022/04/21 03:48:56;;;;;;;0.40;0.20;;;6.30;88.20;;;;;;5011996;28;20385;-69
2022/04/21 03:51:21;;;;;;;0.40;0.20;;;6.40;89.00;;;;;;5013705;28;20415;-69
2022/04/21 03:53:47;;;;;;;0.40;0.20;;;6.40;88.50;;;;;;5013130;28;20385;-69
2022/04/21 03:56:12;;;;;;;0.40;0.20;;;6.40;89.00;;;;;;5013817;28;20442;-68
2022/04/21 03:58:38;;;;;;;0.40;0.20;;;6.30;89.60;;;;;;5012583;28;20393;-69
2022/04/21 04:01:04;;;;;;;0.40;0.20;;;6.40;90.30;;;;;;5012822;28;20885;-69
2022/04/21 04:03:29;;;;;;;0.40;0.20;;;6.30;88.90;;;;;;5012884;28;20417;-68
2022/04/21 04:05:55;;;;;;;0.40;0.30;;;6.20;90.10;;;;;;5012706;28;20399;-69
2022/04/21 04:11:05;;;;;;;0.60;0.60;;;6.30;90.90;;;;;;5012268;28;20889;-69
2022/04/21 04:13:30;;;;;;;0.40;0.20;;;7.10;91.70;;;;;;5013319;28;20388;-68
2022/04/21 04:15:57;;;;;;;0.40;0.20;;;6.10;92.60;;;;;;5011677;28;20757;-68
2022/04/21 04:18:23;;;;;;;0.40;0.30;;;6.00;93.20;;;;;;5013405;28;20389;-68
2022/04/21 04:20:49;;;;;;;0.40;0.20;;;6.00;93.80;;;;;;5013450;28;20393;-68
2022/04/21 04:23:16;;;;;;;0.40;0.20;;;6.30;92.60;;;;;;5012462;28;20440;-68
2022/04/21 04:25:42;;;;;;;0.40;0.20;;;6.40;90.60;;;;;;5013881;28;20384;-68
2022/04/21 04:28:08;;;;;;;0.40;0.30;;;6.40;90.80;;;;;;5012241;28;20864;-68
2022/04/21 04:30:33;;;;;;;0.40;0.20;;;6.50;90.30;;;;;;5013532;28;20391;-68
2022/04/21 04:32:59;;;;;;;0.40;0.30;;;6.50;89.30;;;;;;5013001;28;20742;-68
2022/04/21 04:35:25;;;;;;;0.40;0.20;;;6.60;90.00;;;;;;5012343;28;20409;-68
2022/04/21 04:37:54;;;;;;;0.80;0.60;;;6.60;90.00;;;;;;5013464;28;20397;-68
2022/04/21 04:40:20;;;;;;;0.40;0.20;;;6.50;90.10;;;;;;5011807;28;20467;-69
2022/04/21 04:42:46;;;;;;;0.40;0.30;;;6.30;90.50;;;;;;5011482;28;20889;-68
2022/04/21 04:47:56;;;;;;;0.40;0.20;;;6.30;90.80;;;;;;5012927;28;20937;-68
2022/04/21 04:50:22;;;;;;;0.40;0.20;;;6.30;91.10;;;;;;5012104;28;20472;-68
2022/04/21 04:52:47;;;;;;;0.40;0.20;;;6.30;91.30;;;;;;5012692;28;20853;-68
2022/04/21 04:55:13;;;;;;;0.40;0.20;;;6.30;91.50;;;;;;5012784;28;20774;-69
2022/04/21 04:57:39;;;;;;;0.40;0.20;;;6.30;91.80;;;;;;5011591;28;21315;-69
2022/04/21 05:00:08;;;;;;;0.40;0.20;;;6.20;91.50;;;;;;5012479;28;20817;-68
2022/04/21 05:02:35;;;;;;;0.40;0.20;;;6.30;91.20;;;;;;5011573;28;20408;-68
2022/04/21 05:05:01;;;;;;;4.40;0.70;;;6.30;91.00;;;;;;5012625;28;20455;-67
2022/04/21 05:07:27;;;;;;;0.60;0.60;;;6.30;91.40;;;;;;5011805;28;20443;-69
2022/04/21 05:09:52;;;;;;;0.50;0.40;;;6.30;90.80;;;;;;5012465;28;20394;-68
2022/04/21 05:12:18;;;;;;;0.50;0.50;;;6.30;92.90;;;;;;5012638;28;20854;-68
2022/04/21 05:14:44;;;;;;;0.40;0.20;;;6.40;90.40;;;;;;5011833;28;20381;-68
2022/04/21 05:17:10;;;;;;;0.40;0.20;;;6.30;91.60;;;;;;5012455;28;20437;-68
2022/04/21 05:19:36;;;;;;;0.40;0.20;;;6.20;92.30;;;;;;5010547;28;20389;-68
2022/04/21 05:22:04;;;;;;;0.40;0.20;;;6.20;92.40;;;;;;5012321;28;20420;-68
2022/04/21 05:24:33;;;;;;;0.40;0.20;;;6.20;92.20;;;;;;5011759;28;20404;-68
2022/04/21 05:27:00;;;;;;;0.40;0.20;;;6.30;93.40;;;;;;5011682;28;20412;-67
2022/04/21 05:32:11;;;;;;;1.30;0.50;;;6.40;93.20;;;;;;5011890;28;20380;-67
2022/04/21 05:34:37;;;;;;;0.60;0.50;;;6.50;92.70;;;;;;5011852;28;20384;-67
2022/04/21 05:37:04;;;;;;;0.40;0.20;;;6.60;91.60;;;;;;5010951;28;20392;-68
2022/04/21 05:39:30;;;;;;;0.80;0.80;;;6.70;91.00;;;;;;5011799;28;20404;-68
2022/04/21 05:41:57;;;;;;;0.40;0.20;;;6.70;93.50;;;;;;5010839;28;20769;-68
2022/04/21 05:44:24;;;;;;;0.40;0.20;;;6.70;94.20;;;;;;5011771;28;20715;-68
2022/04/21 05:46:50;;;;;;;0.40;0.30;;;6.90;93.60;;;;;;5011597;28;20468;-68
2022/04/21 05:49:17;;;;;;;0.40;0.20;;;6.90;92.90;;;;;;5011800;28;20392;-67
2022/04/21 05:51:46;;;;;;;0.40;0.20;;;7.00;91.10;;;;;;5011796;28;20456;-69
2022/04/21 05:54:12;;;;;;;1.20;1.10;;;7.20;88.10;;;;;;5010738;28;20396;-69
2022/04/21 05:56:38;;;;;;;0.40;0.20;;;7.30;89.40;;;;;;5011408;28;20395;-69
2022/04/21 05:59:03;;;;;;;0.40;0.20;;;7.30;87.10;;;;;;5010808;28;20377;-67
2022/04/21 06:01:33;;;;;;;0.40;0.30;;;7.30;89.70;;;;;;5011669;28;20382;-68
2022/04/21 06:03:59;;;;;;;1.50;0.90;;;7.40;92.30;;;;;;5011083;28;20389;-69
2022/04/21 06:06:24;;;;;;;0.40;0.40;;;7.50;91.00;;;;;;5011246;28;20397;-68
2022/04/21 06:08:50;;;;;;;0.40;0.20;;;7.60;87.10;;;;;;5010114;28;20437;-68
2022/04/21 06:11:16;;;;;;;0.40;0.20;;;7.70;92.70;;;;;;5010471;28;20850;-68
2022/04/21 06:13:42;;;;;;;0.40;0.20;;;7.80;89.00;;;;;;5011551;28;20384;-68
2022/04/21 06:16:09;;;;;;;0.40;0.30;;;7.70;87.40;;;;;;5010939;28;20393;-68
2022/04/21 06:18:38;;;;;;;0.40;0.20;;;7.70;87.70;;;;;;5011183;28;20388;-68
2022/04/21 06:21:06;;;;;;;0.40;0.20;;;7.80;88.30;;;;;;5011389;28;20385;-68
2022/04/21 06:23:32;;;;;;;0.40;0.30;;;7.90;85.90;;;;;;5010291;28;20457;-68
2022/04/21 06:26:00;;;;;;;0.40;0.20;;;7.90;90.50;;;;;;5010000;28;20397;-67
2022/04/21 06:28:27;;;;;;;0.70;0.60;;;8.20;84.80;;;;;;5010387;28;20381;-68
2022/04/21 06:30:52;;;;;;;0.40;0.20;;;8.30;87.10;;;;;;5012235;28;20399;-68
2022/04/21 06:33:18;;;;;;;0.40;0.27;;;8.30;86.40;;;;;;5030557;28;20469;-68
2022/04/21 06:35:44;;;;;;;0.40;0.20;;;8.30;83.80;;;;;;5030729;28;20379;-68
2022/04/21 06:38:11;;;;;;;0.40;0.20;;;8.40;84.00;;;;;;5030569;28;20474;-68
2022/04/21 06:40:37;;;;;;;0.40;0.20;;;8.50;86.10;;;;;;5030056;28;20379;-69
2022/04/21 06:48:01;;;;;;;0.40;0.40;;;8.50;82.60;;;;;;5030597;28;20756;-69
2022/04/21 06:48:33;;;;;;;0.50;0.50;;;8.90;78.10;;;;;;5029778;28;20398;-68
2022/04/21 06:50:58;;;;;;;0.40;0.20;;;9.10;77.70;;;;;;5030557;28;20375;-68
2022/04/21 06:53:24;;;;;;;0.40;0.20;;;9.10;77.70;;;;;;5030645;28;20394;-68
2022/04/21 06:55:50;;;;;;;0.80;0.80;;;9.10;77.10;;;;;;5029918;28;20813;-68
2022/04/21 06:58:15;;;;;;;0.50;0.50;;;9.10;77.40;;;;;;5030612;28;20383;-68
2022/04/21 07:00:41;;;;;;;0.80;0.70;;;9.10;79.50;;;;;;5029823;28;20383;-69
2022/04/21 07:03:08;;;;;;;0.90;0.80;;;9.20;81.30;;;;;;5030533;28;20511;-68
2022/04/21 07:05:34;;;;;;;0.40;0.22;;;9.20;81.30;;;;;;5030367;28;20383;-68
2022/04/21 07:08:00;;;;;;;0.40;0.20;;;9.00;82.40;;;;;;5029449;28;20402;-68
2022/04/21 07:10:25;;;;;;;0.40;0.20;;;8.80;84.10;;;;;;5030126;28;20375;-67
2022/04/21 07:12:51;;;;;;;0.40;0.20;;;8.70;85.30;;;;;;5030027;28;20387;-68
2022/04/21 07:15:17;;;;;;;1.20;1.20;;;8.90;85.50;;;;;;5029981;28;20385;-67
2022/04/21 07:17:43;;;;;;;0.40;0.20;;;8.90;84.40;;;;;;5030517;28;20380;-68
2022/04/21 07:20:11;;;;;;;0.40;0.40;;;8.90;85.40;;;;;;5013866;28;20384;-68
2022/04/21 07:22:37;;;;;;;0.40;0.30;;;9.00;85.40;;;;;;5010292;28;20413;-67
2022/04/21 07:25:08;;;;;;;0.43;0.40;;;9.20;85.40;;;;;;5009634;28;20385;-68
2022/04/21 07:27:34;;;;;;;0.40;0.20;;;9.30;85.00;;;;;;5010350;28;20396;-69
2022/04/21 07:30:01;;;;;;;0.40;0.20;;;9.30;85.40;;;;;;5009512;28;20385;-69
2022/04/21 07:32:26;;;;;;;0.40;0.30;;;9.40;83.80;;;;;;5009841;28;20424;-69
2022/04/21 07:34:52;;;;;;;0.40;0.20;;;9.40;82.90;;;;;;5010932;28;20428;-68
2022/04/21 07:37:18;;;;;;;0.40;0.22;;;9.30;81.80;;;;;;4999294;28;20414;-69
2022/04/21 07:39:44;;;;;;;1.10;0.80;;;9.60;83.50;;;;;;5009877;28;20495;-68
2022/04/21 07:42:10;;;;;;;0.50;0.50;;;9.60;82.20;;;;;;5008844;28;20776;-69
2022/04/21 07:44:37;;;;;;;0.40;0.40;;;9.70;82.00;;;;;;4998974;28;20381;-69
2022/04/21 07:47:04;;;;;;;0.40;0.20;;;9.80;82.80;;;;;;5004258;28;20529;-68
2022/04/21 07:49:46;;;;;;;0.40;0.28;;;9.80;81.60;;;;;;5004010;28;21027;-69
2022/04/21 07:55:05;;;;;;;0.40;0.30;;;9.90;81.90;;;;;;5005002;28;20441;-69
2022/04/21 07:57:31;;;;;;;0.50;0.50;;;10.00;80.10;;;;;;5005678;28;20459;-69
2022/04/21 07:59:57;;;;;;;0.40;0.20;;;10.00;79.50;;;;;;5013081;28;20381;-69
2022/04/21 08:02:22;;;;;;;0.40;0.20;;;10.00;76.90;;;;;;5007539;28;20418;-69
2022/04/21 08:04:48;;;;;;;0.40;0.20;;;10.20;77.00;;;;;;5000883;28;20512;-69
2022/04/21 08:07:14;;;;;;;0.40;0.30;;;10.30;77.00;;;;;;5002575;28;20410;-69
2022/04/21 08:09:40;;;;;;;0.40;0.20;;;10.40;77.30;;;;;;4999544;28;21115;-68
2022/04/21 08:12:07;;;;;;;0.40;0.20;;;10.40;76.00;;;;;;5010129;28;20402;-68
2022/04/21 08:14:33;;;;;;;0.40;0.38;;;10.40;75.10;;;;;;4992722;28;20856;-69
2022/04/21 08:16:59;;;;;;;0.40;0.20;;;10.40;74.90;;;;;;4993576;28;20469;-69
2022/04/21 08:19:24;;;;;;;0.40;0.30;;;10.60;74.40;;;;;;5007306;28;20377;-69
2022/04/21 08:21:50;;;;;;;0.40;0.20;;;10.60;74.70;;;;;;5012539;28;20980;-68
2022/04/21 08:32:43;;;;;;;0.40;0.30;;;10.80;71.00;;;;;;5027491;28;20983;-70
2022/04/21 08:35:10;;;;;;;0.50;0.50;;;10.90;71.00;;;;;;5031556;28;20861;-69
2022/04/21 08:37:36;;;;;;;0.40;0.30;;;11.10;70.40;;;;;;5032939;28;20860;-69
2022/04/21 08:40:06;;;;;;;0.40;0.20;;;11.10;70.30;;;;;;5031511;28;20395;-68
2022/04/21 08:42:36;;;;;;;0.40;0.20;;;11.20;70.90;;;;;;5032341;28;20557;-68
2022/04/21 08:45:02;;;;;;;0.40;0.40;;;11.20;69.60;;;;;;5031916;28;20462;-69
2022/04/21 08:47:29;;;;;;;0.60;0.60;;;11.40;70.60;;;;;;5032747;28;20685;-69
2022/04/21 08:50:14;;;;;;;0.70;0.50;;;11.50;69.70;;;;;;5031503;28;20871;-69
2022/04/21 08:52:41;;;;;;;0.40;0.20;;;11.50;69.40;;;;;;5032483;28;20390;-68
2022/04/21 08:55:11;;;;;;;0.40;0.20;;;11.60;70.00;;;;;;5030806;28;20391;-69
2022/04/21 08:57:37;;;;;;;0.40;0.30;;;11.70;68.60;;;;;;5032443;28;20375;-69
2022/04/21 09:00:07;;;;;;;0.40;0.20;;;11.70;68.60;;;;;;5031484;28;20775;-68
2022/04/21 09:02:35;;;;;;;0.40;0.20;;;11.90;69.90;;;;;;5017979;28;20423;-69
2022/04/21 09:05:03;;;;;;;0.70;0.70;;;11.90;69.70;;;;;;5011194;28;20553;-70
2022/04/21 09:07:28;;;;;;;0.40;0.22;;;11.80;69.90;;;;;;5011357;28;20447;-70
2022/04/21 09:10:01;;;;;;;0.40;0.20;;;12.10;71.10;;;;;;5012106;28;20795;-69
2022/04/21 09:12:27;;;;;;;0.82;0.82;;;12.10;71.60;;;;;;5012586;28;20384;-68
2022/04/21 09:14:53;;;;;;;0.40;0.20;;;12.20;71.10;;;;;;5012684;28;20388;-68
2022/04/21 09:17:19;;;;;;;0.40;0.20;;;12.30;69.40;;;;;;5011309;28;20388;-70
2022/04/21 09:19:58;;;;;;;0.40;0.40;;;12.60;68.80;;;;;;5012275;28;20377;-68
2022/04/21 09:22:24;;;;;;;0.40;0.20;;;12.50;70.60;;;;;;5013255;28;20503;-68
2022/04/21 09:24:53;;;;;;;0.40;0.20;;;12.50;71.60;;;;;;5020089;28;20387;-68
2022/04/21 09:27:22;;;;;;;0.40;0.22;;;12.60;70.10;;;;;;5021784;28;20377;-68
2022/04/21 09:29:48;;;;;;;0.40;0.40;;;12.60;70.60;;;;;;5020344;28;20380;-68
2022/04/21 09:32:20;;;;;;;0.60;0.60;;;12.60;72.70;;;;;;5019250;28;20379;-71
2022/04/21 09:34:50;;;;;;;1.10;0.90;;;12.80;69.20;;;;;;5018189;28;20481;-68
2022/04/21 09:37:20;;;;;;;0.40;0.20;;;12.80;69.80;;;;;;5020597;28;20397;-70
2022/04/21 09:39:50;;;;;;;0.40;0.30;;;13.00;70.80;;;;;;5015437;28;20467;-67
2022/04/21 09:42:27;;;;;;;0.40;0.20;;;13.10;70.50;;;;;;5020744;28;20407;-70
2022/04/21 09:47:54;;;;;;;0.40;0.20;;;13.30;68.10;;;;;;5021588;28;20786;-68
2022/04/21 09:50:21;;;;;;;0.90;0.90;;;13.40;67.40;;;;;;5022609;28;20743;-69
2022/04/21 09:52:47;;;;;;;0.90;0.60;;;13.40;65.30;;;;;;5014078;28;21392;-67
2022/04/21 09:55:32;;;;;;;1.00;1.00;;;13.40;66.10;;;;;;5009077;28;20735;-68
2022/04/21 09:58:07;;;;;;;0.40;0.20;;;13.70;65.80;;;;;;5011532;28;20389;-68
2022/04/21 10:00:34;;;;;;;0.80;0.70;;;13.90;64.40;;;;;;4994190;28;20406;-71
2022/04/21 10:03:02;;;;;;;0.40;0.30;;;14.00;64.30;;;;;;5005959;28;20952;-68
2022/04/21 10:05:31;;;;;;;0.70;0.70;;;14.00;63.20;;;;;;4995139;28;20940;-69
2022/04/21 10:08:01;;;;;;;0.40;0.30;;;13.90;63.10;;;;;;5011598;28;20405;-67
2022/04/21 10:10:31;;;;;;;0.40;0.40;;;14.00;64.80;;;;;;5007651;28;20491;-67
2022/04/21 10:12:59;;;;;;;0.40;0.20;;;14.10;63.20;;;;;;5005609;28;20708;-69
2022/04/21 10:15:25;;;;;;;3.60;0.80;;;14.10;61.40;;;;;;5004981;28;20408;-68
2022/04/21 10:17:51;;;;;;;0.60;0.60;;;14.10;61.60;;;;;;4992834;28;20746;-67
2022/04/21 10:20:17;;;;;;;0.50;0.50;;;14.40;62.20;;;;;;5009057;28;20388;-67
2022/04/21 10:22:43;;;;;;;0.40;0.20;;;14.40;61.70;;;;;;5009521;28;20409;-68
2022/04/21 10:25:09;;;;;;;0.40;0.20;;;14.40;62.70;;;;;;5009691;28;20381;-67
2022/04/21 10:27:35;;;;;;;0.70;0.60;;;14.50;62.10;;;;;;5001158;28;20487;-68
2022/04/21 10:30:01;;;;;;;0.60;0.50;;;14.50;61.90;;;;;;5009025;28;20404;-68
2022/04/21 10:32:45;;;;;;;0.60;0.60;;;14.50;61.90;;;;;;5010750;28;20745;-67
2022/04/21 10:35:24;;;;;;;0.40;0.30;;;14.80;62.80;;;;;;5007755;28;20407;-67
2022/04/21 10:38:14;;;;;;;0.70;0.70;;;15.00;62.50;;;;;;5007940;28;20440;-68
2022/04/21 10:40:57;;;;;;;0.43;0.43;;;14.90;61.50;;;;;;5008079;28;20495;-69
2022/04/21 10:43:42;;;;;;;0.40;0.30;;;14.80;61.00;;;;;;5009360;28;20420;-69
2022/04/21 10:46:18;;;;;;;0.60;0.60;;;14.90;61.80;;;;;;5006920;28;20393;-68
2022/04/21 10:48:44;;;;;;;0.40;0.30;;;15.00;61.80;;;;;;5009211;28;20750;-68
2022/04/21 10:51:11;;;;;;;0.40;0.40;;;15.10;61.40;;;;;;5009207;28;20441;-68
2022/04/21 10:59:30;;;;;;;0.40;0.30;;;15.60;62.10;;;;;;5009937;28;20385;-68
2022/04/21 11:02:10;;;;;;;0.40;0.20;;;15.60;59.10;;;;;;5009809;28;20381;-68
2022/04/21 11:04:36;;;;;;;0.40;0.20;;;15.70;58.70;;;;;;5005509;28;20399;-69
2022/04/21 11:07:12;;;;;;;0.40;0.20;;;15.70;59.50;;;;;;5009681;28;20404;-70
2022/04/21 11:09:50;;;;;;;0.45;0.43;;;16.10;58.80;;;;;;5009453;28;20439;-70
2022/04/21 11:12:37;;;;;;;0.40;0.40;;;15.70;58.30;;;;;;5009286;28;20401;-69
2022/04/21 11:15:39;;;;;;;0.40;0.22;;;16.20;58.30;;;;;;5010315;28;20397;-68
2022/04/21 11:18:29;;;;;;;0.40;0.20;;;16.30;58.90;;;;;;5011652;28;20385;-68
2022/04/21 11:21:26;;;;;;;0.40;0.30;;;16.30;56.90;;;;;;5011509;28;20385;-67
2022/04/21 11:23:52;;;;;;;0.65;0.40;;;16.70;56.80;;;;;;5010549;28;20438;-67
2022/04/21 11:26:24;;;;;;;0.65;0.65;;;16.70;56.40;;;;;;5012682;28;20392;-67
2022/04/21 11:28:50;;;;;;;1.00;0.70;;;16.90;56.40;;;;;;5012548;28;20908;-68
2022/04/21 11:31:20;;;;;;;0.50;0.50;;;17.30;55.60;;;;;;5012989;28;20450;-68
2022/04/21 11:33:46;;;;;;;0.40;0.20;;;17.90;54.80;;;;;;5013418;28;20404;-68
2022/04/21 11:36:16;;;;;;;0.40;0.20;;;18.90;52.40;;;;;;5025169;28;20403;-67
2022/04/21 11:38:46;;;;;;;0.40;0.20;;;19.10;51.00;;;;;;5008930;28;20412;-68
2022/04/21 11:41:14;;;;;;;0.40;0.30;;;19.70;50.00;;;;;;5009589;28;20396;-67
2022/04/21 11:43:50;;;;;;;0.40;0.20;;;20.20;50.20;;;;;;5011803;28;20429;-69
2022/04/21 11:46:19;;;;;;;0.90;0.90;;;19.80;48.20;;;;;;5013401;28;20387;-69
2022/04/21 11:48:56;;;;;;;0.40;0.30;;;19.10;48.30;;;;;;5007533;28;20831;-69
2022/04/21 11:51:25;;;;;;;0.50;0.50;;;19.60;48.10;;;;;;5013340;28;20377;-69
2022/04/21 11:53:51;;;;;;;0.40;0.20;;;19.70;47.70;;;;;;5013050;28;20393;-68
2022/04/21 11:56:17;;;;;;;0.40;0.20;;;20.30;48.80;;;;;;5013154;28;20400;-68
2022/04/21 11:58:43;;;;;;;0.40;0.30;;;20.00;46.60;;;;;;5003586;28;20406;-68
2022/04/21 12:06:52;;;;;;;0.50;0.40;;;19.70;47.30;;;;;;5012112;28;20403;-66
2022/04/21 12:09:20;;;;;;;0.40;0.20;;;18.90;46.70;;;;;;5012516;28;20385;-67
2022/04/21 12:11:52;;;;;;;0.40;0.20;;;18.80;47.50;;;;;;5008508;28;20409;-67
2022/04/21 12:14:18;;;;;;;0.40;0.30;;;19.60;47.70;;;;;;5010839;28;20385;-69
2022/04/21 12:16:48;;;;;;;0.50;0.50;;;19.50;46.90;;;;;;5011993;28;20385;-68
2022/04/21 12:19:16;;;;;;;0.80;0.60;;;19.80;47.50;;;;;;5011778;28;20468;-68
2022/04/21 12:22:03;;;;;;;0.40;0.30;;;20.10;46.40;;;;;;5011937;28;20471;-71
2022/04/21 12:24:38;;;;;;;0.40;0.25;;;19.90;46.00;;;;;;5001515;28;20389;-68
2022/04/21 12:27:11;;;;;;;3.08;0.73;;;19.60;45.70;;;;;;5011364;28;20463;-68
2022/04/21 12:29:57;;;;;;;0.40;0.20;;;19.70;47.00;;;;;;5011239;28;20735;-68
2022/04/21 12:32:28;;;;;;;5.00;1.10;;;20.60;45.40;;;;;;5009537;28;20404;-68
2022/04/21 12:34:55;;;;;;;0.90;0.80;;;20.00;44.60;;;;;;5012697;28;20392;-68
2022/04/21 12:37:27;;;;;;;0.40;0.30;;;20.40;45.20;;;;;;5013979;28;20754;-68
2022/04/21 12:39:54;;;;;;;0.50;0.50;;;20.50;43.80;;;;;;5012685;28;20420;-69
2022/04/21 12:42:20;;;;;;;0.40;0.30;;;20.40;43.60;;;;;;5012501;28;20429;-70
2022/04/21 12:44:46;;;;;;;0.80;0.80;;;20.80;43.40;;;;;;5012920;28;20396;-69
2022/04/21 12:47:15;;;;;;;0.70;0.50;;;20.80;43.00;;;;;;5012315;28;20388;-68
2022/04/21 12:49:51;;;;;;;0.50;0.40;;;21.60;43.00;;;;;;5012984;28;20452;-68
2022/04/21 12:52:34;;;;;;;0.40;0.20;;;21.50;42.90;;;;;;5012219;28;20396;-69
2022/04/21 12:55:02;;;;;;;0.40;0.20;;;21.50;42.40;;;;;;5011799;28;20381;-69
2022/04/21 12:57:28;;;;;;;0.40;0.22;;;21.70;43.20;;;;;;5012718;28;20387;-68
2022/04/21 12:59:55;;;;;;;0.40;0.30;;;22.10;42.90;;;;;;5027933;28;20381;-70
2022/04/21 13:02:20;;;;;;;0.40;0.20;;;21.40;42.10;;;;;;5011825;28;20572;-69
2022/04/21 13:04:47;;;;;;;0.40;0.20;;;21.40;43.10;;;;;;5012764;28;20923;-68
2022/04/21 13:07:13;;;;;;;0.50;0.50;;;21.00;44.60;;;;;;5010197;28;20413;-70
2022/04/21 13:09:39;;;;;;;0.50;0.40;;;20.40;44.60;;;;;;5012305;28;20416;-68
2022/04/21 13:12:05;;;;;;;0.63;0.57;;;19.90;44.80;;;;;;5012439;28;20770;-68
2022/04/21 13:14:31;;;;;;;0.40;0.30;;;20.40;45.50;;;;;;5011704;28;20463;-68
2022/04/21 13:16:57;;;;;;;0.70;0.60;;;20.20;44.60;;;;;;5012557;28;20889;-68
2022/04/21 13:19:23;;;;;;;1.00;0.60;;;20.90;45.00;;;;;;5011371;28;20380;-68
2022/04/21 13:21:58;;;;;;;0.40;0.20;;;21.40;46.30;;;;;;5012212;28;20386;-69
2022/04/21 13:24:27;;;;;;;0.40;0.20;;;22.20;42.70;;;;;;5011483;28;20411;-68
2022/04/21 13:26:53;;;;;;;0.40;0.30;;;21.80;41.20;;;;;;5012212;28;20746;-69
2022/04/21 13:29:20;;;;;;;0.40;0.20;;;21.70;41.30;;;;;;5010260;28;20865;-69
2022/04/21 13:34:33;;;;;;;0.40;0.20;;;20.90;40.80;;;;;;5011176;28;20399;-69
2022/04/21 13:37:01;;;;;;;1.30;1.20;;;20.90;42.30;;;;;;5012208;28;20463;-68
2022/04/21 13:39:27;;;;;;;0.40;0.20;;;20.50;41.90;;;;;;5010708;28;20416;-69
2022/04/21 13:41:52;;;;;;;0.40;0.20;;;20.70;42.80;;;;;;5011853;28;20385;-68
2022/04/21 13:44:18;;;;;;;0.40;0.40;;;21.60;42.60;;;;;;5011566;28;20385;-68
2022/04/21 13:46:44;;;;;;;0.40;0.20;;;21.80;43.10;;;;;;5011049;28;20777;-68
2022/04/21 13:49:10;;;;;;;0.40;0.20;;;21.30;40.70;;;;;;5012131;28;20392;-67
2022/04/21 13:51:37;;;;;;;0.40;0.20;;;21.90;42.00;;;;;;5011041;28;20393;-68